Time;durP1;ratioP1;P1;durP2;ratioP2;P2;SDS_P1;SDS_P2;PMS_P1;PMS_P2;Temp;Humidity;BMP_temperature;BMP_pressure;BME280_temperature;BME280_humidity;BME280_pressure;Samples;Min_cycle;Max_cycle;Signal;HPM_P1;HPM_P2
2021/11/15 00:02:15;;;;;;;;;17.00;15.33;;;;;18.86;49.50;102024.09;5079662;27;46291;-57
2021/11/15 00:04:41;;;;;;;;;14.00;12.00;;;;;18.85;49.72;102019.63;5079823;27;45225;-57
2021/11/15 00:07:06;;;;;;;;;16.33;15.67;;;;;18.84;49.65;102017.88;5079969;28;45265;-57
2021/11/15 00:09:32;;;;;;;;;15.33;14.00;;;;;18.84;49.63;102028.53;5080115;27;45210;-56
2021/11/15 00:11:59;;;;;;;;;19.00;16.33;;;;;18.83;49.88;102022.28;5079694;28;46215;-56
2021/11/15 00:14:25;;;;;;;;;17.67;15.67;;;;;18.83;49.67;102024.97;5079851;28;45299;-56
2021/11/15 00:16:50;;;;;;;;;16.00;15.00;;;;;18.81;49.66;102024.06;5079633;28;45385;-56
2021/11/15 00:19:16;;;;;;;;;20.00;15.00;;;;;18.82;49.58;102027.63;5080062;28;45315;-57
2021/11/15 00:21:42;;;;;;;;;17.33;14.67;;;;;18.80;49.61;102027.63;5079593;28;45898;-57
2021/11/15 00:24:07;;;;;;;;;15.67;14.33;;;;;18.80;49.90;102024.97;5079398;27;45477;-56
2021/11/15 00:26:33;;;;;;;;;16.67;16.67;;;;;18.79;49.66;102031.16;5079742;27;45427;-56
2021/11/15 00:28:58;;;;;;;;;18.67;15.00;;;;;18.79;49.77;102030.25;5079823;27;45392;-56
2021/11/15 00:31:24;;;;;;;;;16.33;15.67;;;;;18.78;49.65;102029.41;5079321;28;45963;-56
2021/11/15 00:33:52;;;;;;;;;15.00;14.33;;;;;18.77;49.50;102024.94;5079406;27;45428;-57
2021/11/15 00:36:17;;;;;;;;;21.00;19.67;;;;;18.76;49.77;102025.84;5079292;27;45480;-57
2021/11/15 00:38:43;;;;;;;;;16.00;15.67;;;;;18.77;49.77;102029.38;5079452;27;45301;-57
2021/11/15 00:41:09;;;;;;;;;14.00;13.33;;;;;18.75;49.91;102029.38;5079349;27;46598;-56
2021/11/15 00:43:34;;;;;;;;;20.67;17.33;;;;;18.74;49.56;102033.81;5078600;27;45331;-56
2021/11/15 00:46:00;;;;;;;;;16.67;15.67;;;;;18.74;49.76;102036.47;5079641;27;45500;-56
2021/11/15 00:48:26;;;;;;;;;17.67;16.67;;;;;18.74;49.45;102032.94;5079290;27;45338;-56
2021/11/15 00:50:51;;;;;;;;;17.00;15.00;;;;;18.72;49.51;102035.56;5078943;28;47095;-56
2021/11/15 00:53:17;;;;;;;;;16.33;14.67;;;;;18.72;49.76;102040.00;5079217;27;45511;-56
2021/11/15 00:55:42;;;;;;;;;16.67;16.67;;;;;18.71;49.65;102044.47;5079707;27;45301;-56
2021/11/15 00:58:07;;;;;;;;;15.33;14.33;;;;;18.71;49.50;102039.13;5079457;27;45392;-57
2021/11/15 01:00:37;;;;;;;;;14.67;13.67;;;;;18.71;49.79;102044.47;5078973;28;45415;-57
2021/11/15 01:03:06;;;;;;;;;14.67;14.67;;;;;18.71;49.57;102038.22;5078816;27;45329;-56
2021/11/15 01:05:32;;;;;;;;;18.00;14.67;;;;;18.69;49.93;102040.91;5078766;27;45328;-57
2021/11/15 01:07:58;;;;;;;;;16.33;15.00;;;;;18.68;49.75;102041.75;5079426;27;45309;-56
2021/11/15 01:10:24;;;;;;;;;18.67;17.67;;;;;18.69;49.60;102045.31;5078446;27;46981;-57
2021/11/15 01:12:50;;;;;;;;;17.33;16.00;;;;;18.68;49.68;102043.53;5078788;27;45317;-56
2021/11/15 01:15:20;;;;;;;;;22.33;19.00;;;;;18.69;49.48;102048.88;5078837;27;45212;-57
2021/11/15 01:17:46;;;;;;;;;16.67;16.67;;;;;18.68;49.36;102044.44;5078944;27;45467;-57
2021/11/15 01:20:13;;;;;;;;;19.67;17.00;;;;;18.67;49.33;102037.34;5078401;27;46295;-56
2021/11/15 01:22:39;;;;;;;;;16.33;16.33;;;;;18.66;48.80;102046.19;5078249;27;45300;-57
2021/11/15 01:25:06;;;;;;;;;16.67;16.67;;;;;18.67;49.38;102041.75;5078671;27;45239;-56
2021/11/15 01:27:31;;;;;;;;;16.67;15.33;;;;;18.66;49.07;102045.28;5078784;27;45506;-56
2021/11/15 01:29:57;;;;;;;;;17.67;16.67;;;;;18.66;48.93;102039.97;5078394;28;46175;-57
2021/11/15 01:32:22;;;;;;;;;15.67;15.67;;;;;18.66;49.31;102031.97;5078263;27;45357;-56
2021/11/15 01:34:48;;;;;;;;;17.33;15.33;;;;;18.63;49.12;102031.09;5078453;28;45241;-57
2021/11/15 01:37:13;;;;;;;;;17.67;14.67;;;;;18.64;49.24;102031.97;5078428;27;45536;-57
2021/11/15 01:39:41;;;;;;;;;16.00;14.33;;;;;18.62;48.85;102037.31;5078209;27;47109;-57
2021/11/15 01:42:07;;;;;;;;;17.67;15.67;;;;;18.61;49.14;102038.19;5078228;27;45345;-57
2021/11/15 01:44:33;;;;;;;;;17.33;16.67;;;;;18.61;48.93;102035.50;5078396;28;45294;-57
2021/11/15 01:46:58;;;;;;;;;16.33;14.00;;;;;18.61;48.85;102043.50;5078183;27;45423;-56
2021/11/15 01:49:24;;;;;;;;;22.67;19.00;;;;;18.62;49.02;102044.41;5077653;27;45623;-57
2021/11/15 01:51:49;;;;;;;;;14.67;14.67;;;;;18.60;49.02;102044.41;5078231;27;45372;-57
2021/11/15 01:54:15;;;;;;;;;16.67;15.33;;;;;18.59;48.88;102039.94;5077564;27;45425;-57
2021/11/15 01:56:41;;;;;;;;;16.67;16.33;;;;;18.58;49.10;102038.19;5078397;27;45330;-56
2021/11/15 01:59:07;;;;;;;;;18.33;15.67;;;;;18.59;48.84;102039.06;5077892;27;45277;-56
2021/11/15 02:01:33;;;;;;;;;15.00;15.00;;;;;18.58;48.81;102042.59;5078121;27;45428;-56
2021/11/15 02:03:59;;;;;;;;;15.33;12.00;;;;;18.58;48.95;102042.59;5078085;27;45184;-55
2021/11/15 02:06:25;;;;;;;;;14.33;13.33;;;;;18.56;49.04;102029.28;5078748;27;45207;-56
2021/11/15 02:08:51;;;;;;;;;16.67;15.67;;;;;18.57;49.07;102035.53;5077862;27;46149;-55
2021/11/15 02:11:16;;;;;;;;;16.33;14.33;;;;;18.56;49.09;102033.72;5077847;28;45363;-56
2021/11/15 02:13:44;;;;;;;;;15.33;14.67;;;;;18.55;48.72;102040.81;5078176;28;45421;-55
2021/11/15 02:16:10;;;;;;;;;14.33;13.00;;;;;18.55;48.76;102042.59;5078241;27;45424;-56
2021/11/15 02:18:35;;;;;;;;;15.00;14.67;;;;;18.56;48.52;102045.28;5077393;28;46148;-55
2021/11/15 02:21:04;;;;;;;;;20.00;16.00;;;;;18.55;48.60;102043.47;5077608;27;45443;-56
2021/11/15 02:23:33;;;;;;;;;21.33;18.00;;;;;18.54;48.54;102047.03;5077857;27;45284;-56
2021/11/15 02:26:01;;;;;;;;;18.67;14.67;;;;;18.52;48.65;102047.03;5077870;27;45316;-56
2021/11/15 02:28:33;;;;;;;;;16.00;15.33;;;;;18.52;48.60;102054.13;5077516;27;46406;-56
2021/11/15 02:30:59;;;;;;;;;17.67;17.67;;;;;18.51;48.58;102047.00;5077374;27;45264;-56
2021/11/15 02:33:26;;;;;;;;;19.67;16.33;;;;;18.51;48.45;102045.25;5077519;27;45271;-56
2021/11/15 02:35:52;;;;;;;;;14.33;13.67;;;;;18.52;48.60;102040.81;5077641;28;45213;-57
2021/11/15 02:38:17;;;;;;;;;17.33;16.67;;;;;18.51;48.23;102042.59;5077150;28;46989;-56
2021/11/15 02:40:43;;;;;;;;;16.33;16.33;;;;;18.50;48.51;102046.13;5077386;27;45160;-56
2021/11/15 02:43:09;;;;;;;;;14.67;14.67;;;;;18.49;48.60;102039.03;5077647;28;45259;-56
2021/11/15 02:45:35;;;;;;;;;17.67;14.33;;;;;18.50;48.52;102034.59;5077887;27;45227;-56
2021/11/15 02:48:00;;;;;;;;;17.67;14.00;;;;;18.49;48.49;102049.66;5077362;27;47178;-56
2021/11/15 02:50:28;;;;;;;;;15.33;14.67;;;;;18.48;48.48;102042.59;5077451;28;45405;-56
2021/11/15 02:52:57;;;;;;;;;15.67;15.33;;;;;18.49;48.31;102048.78;5077799;27;45322;-57
2021/11/15 02:55:25;;;;;;;;;15.33;14.33;;;;;18.49;48.47;102051.44;5077604;27;45176;-56
2021/11/15 02:57:52;;;;;;;;;17.00;15.67;;;;;18.47;48.66;102051.44;5077487;27;47181;-56
2021/11/15 03:00:24;;;;;;;;;16.33;16.33;;;;;18.47;48.31;102048.78;5077397;27;45352;-57
2021/11/15 03:02:50;;;;;;;;;13.33;12.67;;;;;18.46;48.39;102054.09;5077215;27;45306;-56
2021/11/15 03:05:21;;;;;;;;;16.00;14.33;;;;;18.47;48.58;102053.19;5077562;28;45306;-55
2021/11/15 03:07:47;;;;;;;;;15.00;14.00;;;;;18.45;48.42;102036.31;5080471;27;46138;-56
2021/11/15 03:10:13;;;;;;;;;13.33;13.00;;;;;18.47;48.25;102050.53;5080516;28;45595;-56
2021/11/15 03:12:38;;;;;;;;;11.00;11.00;;;;;18.47;48.39;102050.53;5080900;27;45470;-56
2021/11/15 03:15:05;;;;;;;;;14.67;14.33;;;;;18.47;48.34;102045.22;5081036;27;45409;-57
2021/11/15 03:17:30;;;;;;;;;15.67;13.67;;;;;18.45;48.48;102047.88;5080475;27;46352;-56
2021/11/15 03:19:55;;;;;;;;;16.00;14.67;;;;;18.45;48.19;102041.66;5080408;27;45452;-56
2021/11/15 03:22:21;;;;;;;;;19.00;16.00;;;;;18.45;48.29;102046.97;5080849;28;45240;-56
2021/11/15 03:24:46;;;;;;;;;16.33;15.00;;;;;18.44;48.13;102046.09;5080726;27;45378;-56
2021/11/15 03:27:12;;;;;;;;;16.67;16.67;;;;;18.42;48.14;102044.31;5080441;27;46044;-56
2021/11/15 03:29:37;;;;;;;;;18.67;15.67;;;;;18.43;48.13;102051.41;5080529;27;45380;-56
2021/11/15 03:32:03;;;;;;;;;21.33;17.67;;;;;18.43;47.95;102056.72;5080531;27;45437;-56
2021/11/15 03:34:29;;;;;;;;;18.33;17.00;;;;;18.41;48.14;102051.41;5080494;27;45330;-56
2021/11/15 03:36:54;;;;;;;;;17.33;15.00;;;;;18.43;48.12;102048.75;5079809;27;46318;-57
2021/11/15 03:39:20;;;;;;;;;18.67;16.00;;;;;18.42;47.87;102052.31;5080292;28;45456;-56
2021/11/15 03:41:46;;;;;;;;;18.67;16.33;;;;;18.40;47.97;102049.63;5080479;27;45375;-56
2021/11/15 03:44:12;;;;;;;;;19.33;16.00;;;;;18.38;47.81;102054.94;5080503;27;45315;-57
2021/11/15 03:46:39;;;;;;;;;17.33;15.67;;;;;18.39;47.75;102048.75;5079984;28;47074;-56
2021/11/15 03:49:06;;;;;;;;;15.67;14.67;;;;;18.38;47.89;102049.59;5079990;27;45477;-57
2021/11/15 03:51:33;;;;;;;;;16.00;16.00;;;;;18.39;47.90;102048.75;5079995;27;45511;-56
2021/11/15 03:53:59;;;;;;;;;15.33;15.33;;;;;18.38;47.78;102046.94;5080445;27;45262;-57
2021/11/15 03:56:27;;;;;;;;;19.33;14.00;;;;;18.39;47.75;102043.41;5079827;27;45846;-57
2021/11/15 03:58:55;;;;;;;;;17.00;15.00;;;;;18.38;47.65;102044.28;5079861;27;45273;-57
2021/11/15 04:01:24;;;;;;;;;16.00;16.00;;;;;18.35;47.87;102041.63;5080034;27;45296;-56
2021/11/15 04:03:50;;;;;;;;;16.67;16.33;;;;;18.37;47.65;102054.94;5080145;27;45573;-57
2021/11/15 04:06:24;;;;;;;;;18.33;16.00;;;;;18.36;47.68;102062.00;5079925;28;46173;-56
2021/11/15 04:09:01;;;;;;;;;18.67;18.67;;;;;18.35;47.72;102062.91;5080009;27;45394;-56
2021/11/15 04:11:30;;;;;;;;;18.67;16.00;;;;;18.35;47.45;102054.94;5079742;27;45345;-56
2021/11/15 04:13:59;;;;;;;;;16.67;14.33;;;;;18.34;47.64;102055.78;5079979;27;45550;-56
2021/11/15 04:16:25;;;;;;;;;15.33;15.00;;;;;18.34;47.62;102044.28;5079438;27;47330;-57
2021/11/15 04:19:01;;;;;;;;;15.67;15.67;;;;;18.33;47.30;102046.03;5078700;28;45190;-56
2021/11/15 04:21:29;;;;;;;;;13.67;13.67;;;;;18.32;47.63;102054.91;5079901;27;45324;-56
2021/11/15 04:23:54;;;;;;;;;19.00;17.33;;;;;18.32;47.54;102051.38;5079541;27;45456;-56
2021/11/15 04:26:20;;;;;;;;;13.00;12.00;;;;;18.32;47.42;102049.56;5079462;27;46938;-56
2021/11/15 04:28:45;;;;;;;;;13.33;13.00;;;;;18.31;47.34;102045.13;5079567;27;45226;-56
2021/11/15 04:31:11;;;;;;;;;18.67;17.33;;;;;18.31;47.33;102047.81;5079963;27;45325;-56
2021/11/15 04:33:36;;;;;;;;;16.33;15.33;;;;;18.31;47.25;102045.13;5079793;27;45507;-56
2021/11/15 04:36:03;;;;;;;;;16.67;16.33;;;;;18.32;47.56;102046.91;5079320;28;47113;-56
2021/11/15 04:38:28;;;;;;;;;15.00;15.00;;;;;18.30;47.46;102040.69;5079174;27;45386;-56
2021/11/15 04:40:54;;;;;;;;;16.67;15.67;;;;;18.31;47.23;102038.91;5079418;27;45454;-56
2021/11/15 04:43:19;;;;;;;;;19.00;16.67;;;;;18.30;47.56;102034.50;5079543;27;45459;-56
2021/11/15 04:45:44;;;;;;;;;18.00;17.00;;;;;18.30;47.18;102034.50;5079011;28;46021;-56
2021/11/15 04:48:10;;;;;;;;;16.00;15.67;;;;;18.28;47.13;102035.34;5079180;28;45284;-57
2021/11/15 04:50:36;;;;;;;;;14.00;12.33;;;;;18.28;47.37;102030.03;5079430;27;45298;-57
2021/11/15 04:53:02;;;;;;;;;17.33;17.00;;;;;18.28;47.22;102029.13;5079470;27;45401;-56
2021/11/15 04:55:28;;;;;;;;;16.67;16.67;;;;;18.28;47.22;102037.13;5078913;27;47391;-56
2021/11/15 04:57:55;;;;;;;;;18.33;15.67;;;;;18.28;47.17;102034.47;5078898;27;45696;-56
2021/11/15 05:00:24;;;;;;;;;18.67;15.67;;;;;18.28;46.96;102029.13;5078976;27;45255;-56
2021/11/15 05:02:50;;;;;;;;;20.33;18.00;;;;;18.26;47.27;102031.78;5078789;27;45285;-56
2021/11/15 05:05:18;;;;;;;;;17.67;17.33;;;;;18.27;46.82;102022.06;5078854;27;46290;-57
2021/11/15 05:07:45;;;;;;;;;16.33;16.33;;;;;18.26;46.83;102023.81;5078907;27;45568;-56
2021/11/15 05:10:11;;;;;;;;;17.00;15.67;;;;;18.26;46.83;102020.25;5078887;27;45432;-56
2021/11/15 05:12:37;;;;;;;;;18.33;17.00;;;;;18.27;46.96;102030.03;5078973;27;45357;-56
2021/11/15 05:15:07;;;;;;;;;17.67;16.33;;;;;18.26;46.80;102030.91;5078512;27;47382;-57
2021/11/15 05:17:32;;;;;;;;;15.67;15.00;;;;;18.26;46.95;102030.91;5077357;28;45296;-56
2021/11/15 05:19:58;;;;;;;;;19.33;16.00;;;;;18.24;46.64;102030.91;5078449;28;45297;-56
2021/11/15 05:22:23;;;;;;;;;17.00;16.00;;;;;18.25;46.86;102029.13;5078707;28;45473;-56
2021/11/15 05:24:48;;;;;;;;;18.00;17.00;;;;;18.26;46.92;102033.56;5078479;27;45684;-56
2021/11/15 05:27:14;;;;;;;;;15.33;15.33;;;;;18.23;46.84;102037.09;5078747;27;45153;-56
2021/11/15 05:29:39;;;;;;;;;18.33;16.33;;;;;18.24;46.82;102035.31;5078511;28;45275;-56
2021/11/15 05:32:05;;;;;;;;;19.67;18.33;;;;;18.24;46.80;102032.66;5078644;28;45556;-55
2021/11/15 05:34:30;;;;;;;;;17.67;17.33;;;;;18.23;46.88;102025.56;5078289;27;45418;-56
2021/11/15 05:36:56;;;;;;;;;17.67;15.00;;;;;18.22;46.61;102035.31;5078341;28;45421;-56
2021/11/15 05:39:21;;;;;;;;;16.67;16.67;;;;;18.23;46.77;102033.56;5078727;27;45297;-56
2021/11/15 05:41:47;;;;;;;;;17.33;16.33;;;;;18.22;46.76;102035.31;5078712;27;45483;-57
2021/11/15 05:44:12;;;;;;;;;19.33;15.67;;;;;18.22;46.75;102029.09;5078210;28;47004;-57
2021/11/15 05:46:38;;;;;;;;;16.33;15.00;;;;;18.22;46.62;102045.97;5078100;27;45247;-57
2021/11/15 05:49:03;;;;;;;;;20.00;19.00;;;;;18.22;46.53;102042.41;5078279;28;45336;-57
2021/11/15 05:51:28;;;;;;;;;17.33;14.33;;;;;18.22;46.77;102045.06;5078361;28;45448;-56
2021/11/15 05:53:55;;;;;;;;;16.67;14.67;;;;;18.21;46.94;102052.16;5078288;27;46826;-56
2021/11/15 05:56:21;;;;;;;;;16.67;16.00;;;;;18.22;46.77;102053.06;5078219;27;45219;-57
2021/11/15 05:58:46;;;;;;;;;20.33;16.67;;;;;18.23;46.54;102061.03;5078037;27;45220;-56
2021/11/15 06:01:12;;;;;;;;;18.67;16.00;;;;;18.27;46.81;102067.28;5078380;27;45250;-56
2021/11/15 06:03:37;;;;;;;;;16.33;15.67;;;;;18.28;46.68;102061.06;5077642;28;46072;-57
2021/11/15 06:06:02;;;;;;;;;17.00;14.67;;;;;18.30;46.96;102055.78;5078147;27;45403;-57
2021/11/15 06:08:28;;;;;;;;;16.67;14.67;;;;;18.31;46.92;102057.56;5078218;27;45739;-56
2021/11/15 06:10:53;;;;;;;;;13.67;13.33;;;;;18.33;46.74;102059.34;5078313;27;45486;-54
2021/11/15 06:13:20;;;;;;;;;16.00;13.33;;;;;18.35;47.00;102059.34;5077977;27;46073;-56
2021/11/15 06:15:47;;;;;;;;;14.00;13.00;;;;;18.37;47.12;102060.25;5096879;27;45269;-56
2021/11/15 06:18:14;;;;;;;;;14.33;14.00;;;;;18.38;47.13;102057.59;5098063;27;45395;-56
2021/11/15 06:20:39;;;;;;;;;15.00;14.00;;;;;18.39;47.20;102066.47;5098665;27;45375;-56
2021/11/15 06:23:05;;;;;;;;;14.33;12.33;;;;;18.39;47.31;102064.72;5097824;27;46084;-56
2021/11/15 06:25:31;;;;;;;;;13.33;12.00;;;;;18.42;47.33;102073.59;5097977;27;45346;-57
2021/11/15 06:27:56;;;;;;;;;17.67;14.67;;;;;18.44;47.17;102077.16;5098332;27;45431;-55
2021/11/15 06:30:22;;;;;;;;;13.67;11.00;;;;;18.45;47.45;102069.16;5098381;27;45210;-56
2021/11/15 06:32:47;;;;;;;;;11.67;11.67;;;;;18.46;47.46;102078.97;5097624;27;46980;-56
2021/11/15 06:35:13;;;;;;;;;15.00;11.67;;;;;18.47;47.35;102069.16;5098043;27;45325;-57
2021/11/15 06:37:40;;;;;;;;;14.33;10.67;;;;;18.49;47.44;102080.72;5097779;27;45310;-57
2021/11/15 06:40:07;;;;;;;;;12.00;11.67;;;;;18.50;47.36;102074.53;5098259;27;45308;-57
2021/11/15 06:42:33;;;;;;;;;14.67;12.33;;;;;18.52;47.09;102078.09;5101122;27;46103;-56
2021/11/15 06:44:58;;;;;;;;;12.67;12.67;;;;;18.53;47.46;102079.84;5101394;27;45606;-56
2021/11/15 06:47:24;;;;;;;;;12.67;12.67;;;;;18.55;47.40;102078.09;5101334;27;45360;-57
2021/11/15 06:49:51;;;;;;;;;13.67;13.00;;;;;18.56;47.53;102081.66;5101786;27;45378;-57
2021/11/15 06:52:21;;;;;;;;;13.67;13.33;;;;;18.56;47.38;102076.31;5101355;27;46233;-56
2021/11/15 06:54:47;;;;;;;;;16.00;12.33;;;;;18.57;47.30;102084.31;5101594;27;45492;-57
2021/11/15 06:57:13;;;;;;;;;14.33;14.00;;;;;18.57;47.36;102089.66;5101413;27;45401;-56
2021/11/15 06:59:38;;;;;;;;;12.67;12.67;;;;;18.58;47.28;102088.78;5101472;27;45333;-57
2021/11/15 07:02:04;;;;;;;;;14.00;12.00;;;;;18.58;47.59;102096.78;5101094;27;47093;-56
2021/11/15 07:04:29;;;;;;;;;14.33;14.00;;;;;18.60;47.53;102095.00;5100110;27;45305;-57
2021/11/15 07:06:55;;;;;;;;;20.33;15.00;;;;;18.60;47.50;102103.00;5101546;27;45433;-58
2021/11/15 07:09:20;;;;;;;;;14.00;14.00;;;;;18.60;47.24;102107.41;5101547;27;45289;-56
2021/11/15 07:11:45;;;;;;;;;13.67;13.67;;;;;18.60;47.26;102113.66;5100984;27;45862;-57
2021/11/15 07:14:11;;;;;;;;;15.33;12.67;;;;;18.61;47.25;102112.75;5101320;27;45222;-57
2021/11/15 07:16:37;;;;;;;;;13.67;13.67;;;;;18.61;47.52;102110.09;5101331;27;45495;-57
2021/11/15 07:19:04;;;;;;;;;16.00;14.67;;;;;18.62;47.34;102109.22;5101302;27;45476;-56
2021/11/15 07:21:29;;;;;;;;;14.67;14.67;;;;;18.61;47.92;102112.75;5100839;27;45419;-57
2021/11/15 07:23:55;;;;;;;;;16.67;16.33;;;;;18.61;47.79;102112.75;5100840;27;45330;-56
2021/11/15 07:26:21;;;;;;;;;14.33;14.33;;;;;18.62;47.74;102108.31;5101107;27;45534;-56
2021/11/15 07:28:48;;;;;;;;;15.33;13.67;;;;;18.62;47.65;102109.22;5101371;27;45378;-57
2021/11/15 07:31:14;;;;;;;;;15.00;13.00;;;;;18.61;47.58;102107.41;5099534;27;48031;-57
2021/11/15 07:33:40;;;;;;;;;16.33;13.00;;;;;18.61;48.00;102112.75;5100661;27;45411;-56
2021/11/15 07:36:06;;;;;;;;;15.00;13.33;;;;;18.60;47.85;102110.97;5100728;27;45229;-56
2021/11/15 07:38:31;;;;;;;;;17.00;14.00;;;;;18.59;47.68;102113.66;5100747;27;45485;-57
2021/11/15 07:40:57;;;;;;;;;20.33;13.67;;;;;18.61;47.84;102114.53;5100787;27;45972;-56
2021/11/15 07:43:23;;;;;;;;;15.33;15.33;;;;;18.60;47.75;102115.41;5100873;27;45312;-56
2021/11/15 07:45:48;;;;;;;;;16.33;16.00;;;;;18.60;48.08;102121.63;5100756;27;45214;-56
2021/11/15 07:48:13;;;;;;;;;12.67;12.00;;;;;18.60;47.74;102123.41;5100801;27;45646;-56
2021/11/15 07:50:39;;;;;;;;;16.33;14.67;;;;;18.60;47.74;102132.28;5100410;27;46157;-56
2021/11/15 07:53:05;;;;;;;;;16.33;14.67;;;;;18.61;47.40;102133.19;5099028;27;45221;-56
2021/11/15 07:55:32;;;;;;;;;14.67;13.67;;;;;18.61;47.73;102131.38;5100628;27;45399;-56
2021/11/15 07:57:59;;;;;;;;;12.67;12.33;;;;;18.61;47.61;102144.72;5100683;27;45416;-56
2021/11/15 08:00:25;;;;;;;;;18.00;14.33;;;;;18.61;47.37;102144.72;5100080;27;47183;-57
2021/11/15 08:02:51;;;;;;;;;14.00;14.00;;;;;18.62;47.59;102140.28;5100337;27;45298;-56
2021/11/15 08:05:19;;;;;;;;;15.00;13.33;;;;;18.63;47.37;102150.94;5100475;27;45230;-56
2021/11/15 08:07:45;;;;;;;;;15.33;14.67;;;;;18.63;47.51;102153.59;5100341;27;45245;-56
2021/11/15 08:10:12;;;;;;;;;11.67;11.67;;;;;18.65;47.39;102152.72;5099932;27;46140;-56
2021/11/15 08:12:41;;;;;;;;;15.33;14.67;;;;;18.65;47.71;102150.97;5100355;27;45313;-56
2021/11/15 08:15:10;;;;;;;;;16.00;13.50;;;;;18.66;47.56;102147.41;5100228;27;45232;-57
2021/11/15 08:17:48;;;;;;;;;13.00;13.00;;;;;18.67;47.70;102146.53;5100461;27;45493;-57
2021/11/15 08:20:17;;;;;;;;;15.33;14.33;;;;;18.67;47.79;102138.56;5099929;27;46956;-57
2021/11/15 08:22:47;;;;;;;;;15.33;13.67;;;;;18.67;47.56;102143.88;5099654;27;45470;-57
2021/11/15 08:25:37;;;;;;;;;12.00;12.00;;;;;18.68;47.55;102147.41;5100014;27;45385;-57
2021/11/15 08:28:03;;;;;;;;;15.67;14.33;;;;;18.68;47.63;102150.06;5100202;27;45235;-57
2021/11/15 08:30:29;;;;;;;;;14.00;13.00;;;;;18.68;47.71;102153.63;5099694;27;47163;-57
2021/11/15 08:32:55;;;;;;;;;14.33;13.00;;;;;18.69;47.57;102146.53;5099322;27;45362;-57
2021/11/15 08:35:24;;;;;;;;;17.50;15.00;;;;;18.69;47.55;102152.75;5099974;27;45268;-56
2021/11/15 08:38:14;;;;;;;;;17.33;15.67;;;;;18.70;47.54;102165.19;5099558;27;45508;-57
2021/11/15 08:40:40;;;;;;;;;13.67;12.67;;;;;18.69;47.28;102157.19;5099367;27;46251;-58
2021/11/15 08:43:06;;;;;;;;;14.67;12.00;;;;;18.71;47.43;102152.75;5099684;27;45316;-57
2021/11/15 08:45:32;;;;;;;;;16.00;12.67;;;;;18.70;47.30;102149.19;5099851;27;45279;-56
2021/11/15 08:47:58;;;;;;;;;15.33;14.00;;;;;18.71;47.54;102152.75;5099710;27;45384;-57
2021/11/15 08:50:23;;;;;;;;;13.00;13.00;;;;;18.71;47.36;102155.44;5099352;27;47140;-57
2021/11/15 08:52:48;;;;;;;;;16.00;13.33;;;;;18.69;47.33;102146.53;5099488;27;45432;-57
2021/11/15 08:55:14;;;;;;;;;18.67;16.33;;;;;18.70;47.12;102143.88;5099582;27;45333;-57
2021/11/15 08:57:39;;;;;;;;;11.33;10.67;;;;;18.71;47.21;102147.44;5099645;27;45499;-57
2021/11/15 09:00:06;;;;;;;;;18.67;14.33;;;;;18.68;47.19;102140.31;5099392;27;46263;-57
2021/11/15 09:02:31;;;;;;;;;17.00;14.67;;;;;18.69;47.47;102142.09;5099107;27;45261;-55
2021/11/15 09:04:57;;;;;;;;;12.67;12.67;;;;;18.68;47.28;102142.97;5099090;27;45279;-57
2021/11/15 09:07:22;;;;;;;;;14.00;13.00;;;;;18.68;47.16;102150.06;5099780;27;45395;-56
2021/11/15 09:09:48;;;;;;;;;14.33;12.00;;;;;18.69;47.50;102141.22;5099316;27;46974;-57
2021/11/15 09:12:15;;;;;;;;;17.00;14.33;;;;;18.68;47.06;102134.09;5099197;27;45194;-57
2021/11/15 09:14:40;;;;;;;;;13.67;13.33;;;;;18.68;47.33;102139.41;5099524;27;45318;-57
2021/11/15 09:17:08;;;;;;;;;14.67;14.67;;;;;18.68;47.20;102140.31;5099565;27;45502;-57
2021/11/15 09:19:33;;;;;;;;;13.33;13.33;;;;;18.68;47.06;102136.75;5099152;27;45993;-57
2021/11/15 09:21:59;;;;;;;;;17.33;13.67;;;;;18.66;47.09;102127.88;5098899;27;45382;-56
2021/11/15 09:24:24;;;;;;;;;15.33;12.67;;;;;18.68;47.24;102139.41;5099216;27;45375;-57
2021/11/15 09:26:51;;;;;;;;;15.67;13.00;;;;;18.67;47.08;102138.56;5099292;27;45354;-57
2021/11/15 09:29:18;;;;;;;;;13.33;12.33;;;;;18.67;47.03;102146.53;5098741;27;46492;-56
2021/11/15 09:31:44;;;;;;;;;14.00;13.33;;;;;18.66;47.14;102136.75;5098909;27;45448;-56
2021/11/15 09:34:10;;;;;;;;;15.33;13.00;;;;;18.67;46.75;102135.00;5098949;27;45393;-57
2021/11/15 09:36:38;;;;;;;;;12.00;11.33;;;;;18.67;46.98;102135.00;5098773;27;45318;-57
2021/11/15 09:39:06;;;;;;;;;13.00;13.00;;;;;18.67;46.89;102132.31;5098634;27;46249;-56
2021/11/15 09:41:32;;;;;;;;;15.00;12.00;;;;;18.67;47.11;102133.22;5098748;27;45164;-56
2021/11/15 09:43:59;;;;;;;;;12.33;12.00;;;;;18.67;46.98;102137.66;5098614;27;45175;-56
2021/11/15 09:46:27;;;;;;;;;14.00;12.33;;;;;18.68;47.05;102140.31;5098818;27;45233;-57
2021/11/15 09:49:09;;;;;;;;;14.67;12.33;;;;;18.68;47.11;102136.75;5098345;27;46239;-57
2021/11/15 09:51:35;;;;;;;;;12.00;12.00;;;;;18.68;47.03;102150.06;5098386;27;45343;-57
2021/11/15 09:54:03;;;;;;;;;13.00;13.00;;;;;18.70;47.28;102156.28;5098452;27;45298;-56
2021/11/15 09:56:28;;;;;;;;;19.33;13.67;;;;;18.70;47.17;102159.84;5098571;27;45246;-57
2021/11/15 09:58:54;;;;;;;;;11.33;10.33;;;;;18.70;47.56;102162.53;5098160;27;46872;-57
2021/11/15 10:01:20;;;;;;;;;16.00;14.00;;;;;18.69;46.95;102167.84;5098335;27;45366;-57
2021/11/15 10:03:46;;;;;;;;;15.00;12.00;;;;;18.72;47.21;102167.84;5098366;27;45313;-56
2021/11/15 10:06:11;;;;;;;;;15.00;13.00;;;;;18.71;46.92;102160.75;5098775;27;45433;-56
2021/11/15 10:08:47;;;;;;;;;18.00;15.33;;;;;18.74;47.16;102163.47;5098246;27;46589;-56
2021/11/15 10:11:13;;;;;;;;;16.67;13.00;;;;;18.73;46.95;102154.56;5098127;27;45518;-57
2021/11/15 10:13:40;;;;;;;;;14.67;12.67;;;;;18.74;47.12;102152.81;5098492;27;45229;-55
2021/11/15 10:16:17;;;;;;;;;15.67;15.67;;;;;18.75;46.82;102152.81;5097753;27;45466;-57
2021/11/15 10:18:57;;;;;;;;;11.33;11.33;;;;;18.76;47.23;102153.69;5098049;27;45437;-57
2021/11/15 10:21:37;;;;;;;;;12.00;12.00;;;;;18.76;47.28;102151.03;5098145;27;45215;-57
2021/11/15 10:24:07;;;;;;;;;12.00;12.00;;;;;18.76;47.22;102145.72;5098018;27;45417;-56
2021/11/15 10:26:41;;;;;;;;;17.00;14.67;;;;;18.76;47.46;102148.38;5098602;27;45399;-57
2021/11/15 10:29:19;;;;;;;;;18.67;16.33;;;;;18.77;47.25;102149.25;5097964;27;46344;-57
2021/11/15 10:31:47;;;;;;;;;15.67;15.33;;;;;18.76;47.14;102143.03;5098091;27;45332;-57
2021/11/15 10:34:22;;;;;;;;;14.67;13.00;;;;;18.77;47.14;102146.56;5098016;27;45347;-57
2021/11/15 10:37:10;;;;;;;;;16.00;13.33;;;;;18.75;46.99;102144.81;5097854;27;45376;-57
2021/11/15 10:39:44;;;;;;;;;14.67;14.67;;;;;18.77;47.04;102147.47;5097811;27;46349;-57
2021/11/15 10:42:25;;;;;;;;;16.00;15.00;;;;;18.77;46.94;102150.13;5097868;27;45399;-57
2021/11/15 10:45:12;;;;;;;;;16.00;13.67;;;;;18.75;46.94;102134.16;5097888;27;45290;-57
2021/11/15 10:48:16;;;;;;;;;15.67;14.67;;;;;18.76;47.06;102137.72;5098066;27;45320;-57
2021/11/15 10:50:56;;;;;;;;;15.33;12.67;;;;;18.75;46.67;102142.16;5054713;28;46074;-57
2021/11/15 10:53:44;;;;;;;;;13.67;12.33;;;;;18.75;47.04;102136.81;5054718;28;45320;-57
2021/11/15 10:56:19;;;;;;;;;18.00;13.00;;;;;18.75;46.75;102139.47;5054960;28;45295;-57
2021/11/15 10:58:52;;;;;;;;;20.33;17.00;;;;;18.75;46.48;102130.59;5055017;28;45192;-57
2021/11/15 11:01:20;;;;;;;;;14.67;14.00;;;;;18.75;46.49;102131.50;5054712;28;47028;-57
2021/11/15 11:03:46;;;;;;;;;16.67;14.33;;;;;18.75;46.68;102135.91;5054568;28;45490;-56
2021/11/15 11:06:16;;;;;;;;;12.33;12.33;;;;;18.75;46.60;102125.25;5054778;28;45365;-56
2021/11/15 11:08:43;;;;;;;;;15.33;15.00;;;;;18.74;46.46;102119.03;5055094;28;45299;-57
2021/11/15 11:11:14;;;;;;;;;14.00;13.67;;;;;18.73;46.48;102117.28;5054322;28;46223;-57